createdAt,value
2018-02-21T00:00:39.926Z,954.94
2018-02-21T00:01:39.938Z,954.96
2018-02-21T00:02:39.948Z,954.94
2018-02-21T00:03:39.961Z,954.97
2018-02-21T00:04:39.973Z,954.99
2018-02-21T00:05:39.984Z,954.97
2018-02-21T00:06:39.997Z,954.99
2018-02-21T00:07:40.008Z,954.97
2018-02-21T00:08:40.070Z,954.93
2018-02-21T00:09:40.032Z,954.98
2018-02-21T00:10:40.043Z,954.95
2018-02-21T00:11:40.054Z,954.97
2018-02-21T00:12:40.066Z,955
2018-02-21T00:13:40.078Z,955
2018-02-21T00:14:40.091Z,955
2018-02-21T00:15:40.101Z,955
2018-02-21T00:16:40.115Z,955.01
2018-02-21T00:17:40.128Z,955
2018-02-21T00:18:40.136Z,955
2018-02-21T00:19:40.148Z,955
2018-02-21T00:20:40.160Z,954.99
2018-02-21T00:21:40.173Z,955.01
2018-02-21T00:22:40.225Z,955.02
2018-02-21T00:23:40.196Z,955.02
2018-02-21T00:24:40.208Z,955.05
2018-02-21T00:25:40.219Z,955.04
2018-02-21T00:26:40.284Z,955.04
2018-02-21T00:27:40.242Z,955.07
2018-02-21T00:28:40.255Z,955.1
2018-02-21T00:29:40.265Z,955.1
2018-02-21T00:30:40.276Z,955.07
2018-02-21T00:31:40.289Z,955.05
2018-02-21T00:32:40.300Z,955.06
2018-02-21T00:33:40.312Z,955.01
2018-02-21T00:34:40.324Z,955.05
2018-02-21T00:35:40.341Z,955.03
2018-02-21T00:36:40.350Z,955.04
2018-02-21T00:37:40.358Z,955.03
2018-02-21T00:38:40.371Z,955.05
2018-02-21T00:39:40.384Z,955.04
2018-02-21T00:40:40.406Z,955.01
2018-02-21T00:41:40.459Z,955.01
2018-02-21T00:42:40.416Z,955.03
2018-02-21T00:43:40.428Z,955
2018-02-21T00:44:40.440Z,954.97
2018-02-21T00:45:40.454Z,955.03
2018-02-21T00:46:40.464Z,954.99
2018-02-21T00:47:40.481Z,955.02
2018-02-21T00:48:40.486Z,955
2018-02-21T00:49:40.498Z,955.02
2018-02-21T00:50:40.510Z,955.03
2018-02-21T00:51:40.520Z,955.04
2018-02-21T00:52:40.536Z,955.04
2018-02-21T00:53:40.544Z,954.99
2018-02-21T00:54:40.559Z,954.97
2018-02-21T00:55:40.570Z,954.96
2018-02-21T00:56:40.634Z,955
2018-02-21T00:57:40.594Z,955.02
2018-02-21T00:58:40.605Z,954.97
2018-02-21T00:59:40.617Z,954.95
2018-02-21T01:00:40.628Z,954.93
2018-02-21T01:01:40.640Z,954.93
2018-02-21T01:02:40.654Z,954.93
2018-02-21T01:03:40.667Z,954.91
2018-02-21T01:04:40.674Z,954.94
2018-02-21T01:05:40.688Z,954.96
2018-02-21T01:06:40.698Z,955.01
2018-02-21T01:07:40.710Z,955
2018-02-21T01:08:40.721Z,955.05
2018-02-21T01:09:40.733Z,955.03
2018-02-21T01:10:40.743Z,955.07
2018-02-21T01:11:40.809Z,955.02
2018-02-21T01:12:40.769Z,955.1
2018-02-21T01:13:40.779Z,955.05
2018-02-21T01:14:40.791Z,955.05
2018-02-21T01:15:40.802Z,955.09
2018-02-21T01:16:40.817Z,955.08
2018-02-21T01:17:40.827Z,955.05
2018-02-21T01:18:40.838Z,955.04
2018-02-21T01:19:40.899Z,955.04
2018-02-21T01:20:40.862Z,955.03
2018-02-21T01:21:40.874Z,955.07
2018-02-21T01:22:40.885Z,955.04
2018-02-21T01:23:40.899Z,955.07
2018-02-21T01:24:40.910Z,955.04
2018-02-21T01:25:40.921Z,955.06
2018-02-21T01:26:40.933Z,955.07
2018-02-21T01:27:40.946Z,955.06
2018-02-21T01:28:40.954Z,955.05
2018-02-21T01:29:40.966Z,955.06
2018-02-21T01:30:40.978Z,955.05
2018-02-21T01:31:40.992Z,955
2018-02-21T01:32:41.002Z,955.06
2018-02-21T01:33:41.014Z,955.01
2018-02-21T01:34:41.075Z,955.02
2018-02-21T01:35:41.038Z,955.01
2018-02-21T01:36:41.049Z,955.03
2018-02-21T01:37:41.061Z,955
2018-02-21T01:38:41.072Z,955.03
2018-02-21T01:39:41.090Z,955.03
2018-02-21T01:40:41.096Z,955.04
2018-02-21T01:41:41.109Z,955.05
2018-02-21T01:42:41.124Z,955.09
2018-02-21T01:43:41.132Z,955.07
2018-02-21T01:44:41.157Z,955.1
2018-02-21T01:45:41.156Z,955.05
2018-02-21T01:46:41.167Z,955.07
2018-02-21T01:47:41.179Z,955.11
2018-02-21T01:48:41.190Z,955.11
2018-02-21T01:49:41.252Z,955.12
2018-02-21T01:50:41.214Z,955.12
2018-02-21T01:51:41.225Z,955.11
2018-02-21T01:52:41.238Z,955.11
2018-02-21T01:53:41.248Z,955.1
2018-02-21T01:54:41.260Z,955.12
2018-02-21T01:55:41.272Z,955.08
2018-02-21T01:56:41.284Z,955.06
2018-02-21T01:57:41.295Z,955.13
2018-02-21T01:58:41.309Z,955.11
2018-02-21T01:59:41.319Z,955.15
2018-02-21T02:00:41.330Z,955.14
2018-02-21T02:01:41.340Z,955.16
2018-02-21T02:02:41.352Z,955.13
2018-02-21T02:03:41.364Z,955.13
2018-02-21T02:04:41.426Z,955.13
2018-02-21T02:05:41.386Z,955.13
2018-02-21T02:06:41.399Z,955.15
2018-02-21T02:07:41.411Z,955.12
2018-02-21T02:08:41.422Z,955.17
2018-02-21T02:09:41.540Z,955.16
2018-02-21T02:10:41.445Z,955.12
2018-02-21T02:11:41.458Z,955.16
2018-02-21T02:12:41.469Z,955.11
2018-02-21T02:13:41.484Z,955.13
2018-02-21T02:14:41.494Z,955.16
2018-02-21T02:15:41.505Z,955.1
2018-02-21T02:16:41.518Z,955.08
2018-02-21T02:17:41.528Z,955.11
2018-02-21T02:18:41.539Z,955.1
2018-02-21T02:19:41.600Z,955.1
2018-02-21T02:20:41.562Z,955.11
2018-02-21T02:21:41.575Z,955.13
2018-02-21T02:22:41.586Z,955.17
2018-02-21T02:23:41.599Z,955.18
2018-02-21T02:24:41.609Z,955.19
2018-02-21T02:25:41.620Z,955.18
2018-02-21T02:26:41.633Z,955.16
2018-02-21T02:27:41.648Z,955.15
2018-02-21T02:28:41.660Z,955.16
2018-02-21T02:29:41.667Z,955.19
2018-02-21T02:30:41.679Z,955.17
2018-02-21T02:31:41.691Z,955.22
2018-02-21T02:32:41.702Z,955.19
2018-02-21T02:33:41.713Z,955.19
2018-02-21T02:34:41.725Z,955.22
2018-02-21T02:35:41.738Z,955.23
2018-02-21T02:36:41.900Z,955.21
2018-02-21T02:37:41.761Z,955.21
2018-02-21T02:38:41.772Z,955.26
2018-02-21T02:39:41.784Z,955.23
2018-02-21T02:40:41.794Z,955.24
2018-02-21T02:41:41.805Z,955.25
2018-02-21T02:42:41.818Z,955.27
2018-02-21T02:43:41.830Z,955.24
2018-02-21T02:44:41.841Z,955.29
2018-02-21T02:45:41.853Z,955.22
2018-02-21T02:46:41.867Z,955.2
2018-02-21T02:47:41.876Z,955.25
2018-02-21T02:48:41.911Z,955.28
2018-02-21T02:49:41.899Z,955.3
2018-02-21T02:50:41.924Z,955.28
2018-02-21T02:51:41.974Z,955.28
2018-02-21T02:52:41.937Z,955.22
2018-02-21T02:53:41.945Z,955.24
2018-02-21T02:54:41.958Z,955.22
2018-02-21T02:55:41.977Z,955.3
2018-02-21T02:56:41.980Z,955.26
2018-02-21T02:57:41.991Z,955.29
2018-02-21T02:58:42.004Z,955.31
2018-02-21T02:59:42.016Z,955.33
2018-02-21T03:00:42.025Z,955.34
2018-02-21T03:01:42.037Z,955.35
2018-02-21T03:02:42.054Z,955.36
2018-02-21T03:03:42.066Z,955.36
2018-02-21T03:04:42.076Z,955.37
2018-02-21T03:05:42.083Z,955.36
2018-02-21T03:06:42.143Z,955.37
2018-02-21T03:07:42.110Z,955.35
2018-02-21T03:08:42.121Z,955.36
2018-02-21T03:09:42.132Z,955.37
2018-02-21T03:10:42.145Z,955.34
2018-02-21T03:11:42.155Z,955.39
2018-02-21T03:12:42.167Z,955.35
2018-02-21T03:13:42.181Z,955.3
2018-02-21T03:14:42.190Z,955.33
2018-02-21T03:15:42.202Z,955.32
2018-02-21T03:16:42.217Z,955.33
2018-02-21T03:17:42.226Z,955.28
2018-02-21T03:18:42.237Z,955.29
2018-02-21T03:19:42.249Z,955.31
2018-02-21T03:20:42.262Z,955.29
2018-02-21T03:21:42.329Z,955.28
2018-02-21T03:22:42.286Z,955.28
2018-02-21T03:23:42.297Z,955.27
2018-02-21T03:24:42.310Z,955.31
2018-02-21T03:25:42.321Z,955.33
2018-02-21T03:26:42.333Z,955.33
2018-02-21T03:27:42.344Z,955.31
2018-02-21T03:28:42.356Z,955.3
2018-02-21T03:29:42.369Z,955.33
2018-02-21T03:30:42.381Z,955.31
2018-02-21T03:31:42.395Z,955.27
2018-02-21T03:32:42.410Z,955.29
2018-02-21T03:33:42.414Z,955.3
2018-02-21T03:34:42.427Z,955.31
2018-02-21T03:35:42.439Z,955.3
2018-02-21T03:36:42.500Z,955.31
2018-02-21T03:37:42.462Z,955.29
2018-02-21T03:38:42.474Z,955.33
2018-02-21T03:39:42.485Z,955.27
2018-02-21T03:40:42.495Z,955.26
2018-02-21T03:41:42.508Z,955.28
2018-02-21T03:42:42.520Z,955.26
2018-02-21T03:43:42.532Z,955.29
2018-02-21T03:44:42.544Z,955.31
2018-02-21T03:45:42.556Z,955.31
2018-02-21T03:46:42.568Z,955.33
2018-02-21T03:47:42.584Z,955.34
2018-02-21T03:48:42.590Z,955.32
2018-02-21T03:49:42.602Z,955.36
2018-02-21T03:50:42.615Z,955.35
2018-02-21T03:51:42.676Z,955.37
2018-02-21T03:52:42.658Z,955.35
2018-02-21T03:53:42.652Z,955.37
2018-02-21T03:54:42.662Z,955.34
2018-02-21T03:55:42.675Z,955.35
2018-02-21T03:56:42.689Z,955.36
2018-02-21T03:57:42.698Z,955.39
2018-02-21T03:58:42.710Z,955.36
2018-02-21T03:59:42.724Z,955.41
2018-02-21T04:00:42.734Z,955.39
2018-02-21T04:01:42.753Z,955.41
2018-02-21T04:02:42.758Z,955.4
2018-02-21T04:03:42.768Z,955.4
2018-02-21T04:04:42.781Z,955.4
2018-02-21T04:05:42.792Z,955.41
2018-02-21T04:06:42.809Z,955.45
2018-02-21T04:07:42.866Z,955.42
2018-02-21T04:08:42.828Z,955.47
2018-02-21T04:09:42.840Z,955.44
2018-02-21T04:10:42.852Z,955.45
2018-02-21T04:11:42.865Z,955.45
2018-02-21T04:12:42.876Z,955.47
2018-02-21T04:13:42.887Z,955.48
2018-02-21T04:14:42.900Z,955.48
2018-02-21T04:15:42.911Z,955.49
2018-02-21T04:16:42.922Z,955.48
2018-02-21T04:17:42.934Z,955.48
2018-02-21T04:18:42.947Z,955.48
2018-02-21T04:19:42.958Z,955.54
2018-02-21T04:20:42.974Z,955.54
2018-02-21T04:21:42.982Z,955.56
2018-02-21T04:22:43.044Z,955.57
2018-02-21T04:23:43.010Z,955.58
2018-02-21T04:24:43.017Z,955.58
2018-02-21T04:25:43.029Z,955.57
2018-02-21T04:26:43.041Z,955.58
2018-02-21T04:27:43.050Z,955.53
2018-02-21T04:28:43.063Z,955.6
2018-02-21T04:29:43.073Z,955.54
2018-02-21T04:30:43.086Z,955.57
2018-02-21T04:31:43.096Z,955.58
2018-02-21T04:32:43.108Z,955.62
2018-02-21T04:33:43.120Z,955.59
2018-02-21T04:34:43.132Z,955.63
2018-02-21T04:35:43.143Z,955.62
2018-02-21T04:36:43.154Z,955.62
2018-02-21T04:37:43.216Z,955.65
2018-02-21T04:38:43.177Z,955.67
2018-02-21T04:39:43.189Z,955.7
2018-02-21T04:40:43.203Z,955.69
2018-02-21T04:41:43.212Z,955.71
2018-02-21T04:42:43.224Z,955.72
2018-02-21T04:43:43.235Z,955.69
2018-02-21T04:44:43.245Z,955.73
2018-02-21T04:45:43.258Z,955.74
2018-02-21T04:46:43.268Z,955.72
2018-02-21T04:47:43.280Z,955.73
2018-02-21T04:48:43.300Z,955.73
2018-02-21T04:49:43.302Z,955.73
2018-02-21T04:50:43.314Z,955.75
2018-02-21T04:51:43.327Z,955.73
2018-02-21T04:52:43.387Z,955.77
2018-02-21T04:53:43.347Z,955.76
2018-02-21T04:54:43.359Z,955.81
2018-02-21T04:55:43.370Z,955.83
2018-02-21T04:56:43.382Z,955.8
2018-02-21T04:57:43.443Z,955.79
2018-02-21T04:58:43.406Z,955.78
2018-02-21T04:59:43.417Z,955.78
2018-02-21T05:00:43.467Z,955.81
2018-02-21T05:01:43.439Z,955.8
2018-02-21T05:02:43.449Z,955.8
2018-02-21T05:03:43.476Z,955.75
2018-02-21T05:04:43.471Z,955.79
2018-02-21T05:05:43.490Z,955.78
2018-02-21T05:06:43.495Z,955.81
2018-02-21T05:07:43.507Z,955.78
2018-02-21T05:08:43.517Z,955.78
2018-02-21T05:09:43.528Z,955.82
2018-02-21T05:10:43.542Z,955.8
2018-02-21T05:11:43.549Z,955.83
2018-02-21T05:12:43.560Z,955.83
2018-02-21T05:13:43.573Z,955.81
2018-02-21T05:14:43.635Z,955.77
2018-02-21T05:15:43.595Z,955.81
2018-02-21T05:16:43.606Z,955.85
2018-02-21T05:17:43.625Z,955.82
2018-02-21T05:18:43.630Z,955.82
2018-02-21T05:19:43.642Z,955.83
2018-02-21T05:20:43.651Z,955.88
2018-02-21T05:21:43.661Z,955.84
2018-02-21T05:22:43.673Z,955.86
2018-02-21T05:23:43.683Z,955.86
2018-02-21T05:24:43.701Z,955.88
2018-02-21T05:25:43.707Z,955.88
2018-02-21T05:26:43.718Z,955.9
2018-02-21T05:27:43.729Z,955.85
2018-02-21T05:28:43.740Z,955.88
2018-02-21T05:29:43.802Z,955.88
2018-02-21T05:30:43.762Z,955.86
2018-02-21T05:31:43.775Z,955.87
2018-02-21T05:32:43.785Z,955.9
2018-02-21T05:33:43.796Z,955.88
2018-02-21T05:34:43.807Z,955.89
2018-02-21T05:35:43.820Z,955.89
2018-02-21T05:36:43.831Z,955.9
2018-02-21T05:37:43.843Z,955.96
2018-02-21T05:38:43.854Z,955.94
2018-02-21T05:39:43.865Z,955.97
2018-02-21T05:40:43.875Z,955.95
2018-02-21T05:41:43.888Z,955.96
2018-02-21T05:42:43.899Z,955.89
2018-02-21T05:43:43.909Z,955.94
2018-02-21T05:44:43.971Z,955.95
2018-02-21T05:45:43.932Z,955.95
2018-02-21T05:46:43.944Z,955.96
2018-02-21T05:47:43.956Z,955.99
2018-02-21T05:48:43.967Z,955.99
2018-02-21T05:49:44.077Z,956.04
2018-02-21T05:50:43.989Z,956.06
2018-02-21T05:51:44.001Z,956.08
2018-02-21T05:52:44.012Z,956.06
2018-02-21T05:53:44.024Z,956.1
2018-02-21T05:54:44.035Z,956.11
2018-02-21T05:55:44.047Z,956.1
2018-02-21T05:56:44.059Z,956.15
2018-02-21T05:57:44.070Z,956.13
2018-02-21T05:58:44.082Z,956.09
2018-02-21T05:59:44.142Z,956.09
2018-02-21T06:00:44.105Z,956.09
2018-02-21T06:01:44.116Z,956.12
2018-02-21T06:02:44.127Z,956.11
2018-02-21T06:03:44.137Z,956.11
2018-02-21T06:04:44.150Z,956.13
2018-02-21T06:05:44.162Z,956.16
2018-02-21T06:06:44.172Z,956.17
2018-02-21T06:07:44.185Z,956.19
2018-02-21T06:08:44.196Z,956.19
2018-02-21T06:09:44.207Z,956.21
2018-02-21T06:10:44.219Z,956.19
2018-02-21T06:11:44.231Z,956.23
2018-02-21T06:12:44.242Z,956.23
2018-02-21T06:13:44.252Z,956.26
2018-02-21T06:14:44.414Z,956.25
2018-02-21T06:15:44.276Z,956.27
2018-02-21T06:16:44.287Z,956.23
2018-02-21T06:17:44.298Z,956.21
2018-02-21T06:18:44.311Z,956.25
2018-02-21T06:19:44.320Z,956.25
2018-02-21T06:20:44.332Z,956.21
2018-02-21T06:21:44.361Z,956.21
2018-02-21T06:22:44.355Z,956.26
2018-02-21T06:23:44.366Z,956.26
2018-02-21T06:24:44.376Z,956.28
2018-02-21T06:25:44.388Z,956.25
2018-02-21T06:26:44.401Z,956.29
2018-02-21T06:27:44.412Z,956.26
2018-02-21T06:28:44.430Z,956.27
2018-02-21T06:29:44.484Z,956.3
2018-02-21T06:30:44.446Z,956.28
2018-02-21T06:31:44.456Z,956.3
2018-02-21T06:32:44.470Z,956.27
2018-02-21T06:33:44.481Z,956.25
2018-02-21T06:34:44.492Z,956.24
2018-02-21T06:35:44.506Z,956.25
2018-02-21T06:36:44.514Z,956.3
2018-02-21T06:37:44.526Z,956.32
2018-02-21T06:38:44.538Z,956.29
2018-02-21T06:39:44.547Z,956.27
2018-02-21T06:40:44.559Z,956.3
2018-02-21T06:41:44.570Z,956.26
2018-02-21T06:42:44.582Z,956.28
2018-02-21T06:43:44.594Z,956.3
2018-02-21T06:44:44.654Z,956.33
2018-02-21T06:45:44.617Z,956.32
2018-02-21T06:46:44.627Z,956.32
2018-02-21T06:47:44.639Z,956.32
2018-02-21T06:48:44.649Z,956.31
2018-02-21T06:49:44.661Z,956.31
2018-02-21T06:50:44.676Z,956.28
2018-02-21T06:51:44.684Z,956.26
2018-02-21T06:52:44.695Z,956.3
2018-02-21T06:53:44.707Z,956.26
2018-02-21T06:54:44.720Z,956.29
2018-02-21T06:55:44.731Z,956.28
2018-02-21T06:56:44.742Z,956.28
2018-02-21T06:57:44.752Z,956.27
2018-02-21T06:58:44.764Z,956.26
2018-02-21T06:59:44.926Z,956.28
2018-02-21T07:00:44.788Z,956.3
2018-02-21T07:01:44.796Z,956.31
2018-02-21T07:02:44.811Z,956.34
2018-02-21T07:03:44.823Z,956.31
2018-02-21T07:04:44.832Z,956.31
2018-02-21T07:05:44.843Z,956.33
2018-02-21T07:06:44.854Z,956.33
2018-02-21T07:07:44.867Z,956.35
2018-02-21T07:08:44.877Z,956.35
2018-02-21T07:09:44.888Z,956.34
2018-02-21T07:10:44.901Z,956.39
2018-02-21T07:11:44.912Z,956.35
2018-02-21T07:12:44.923Z,956.35
2018-02-21T07:13:44.934Z,956.33
2018-02-21T07:14:44.998Z,956.37
2018-02-21T07:15:44.958Z,956.35
2018-02-21T07:16:44.969Z,956.33
2018-02-21T07:17:44.981Z,956.38
2018-02-21T07:18:44.994Z,956.34
2018-02-21T07:19:45.005Z,956.33
2018-02-21T07:20:45.017Z,956.34
2018-02-21T07:21:45.028Z,956.36
2018-02-21T07:22:45.042Z,956.32
2018-02-21T07:23:45.055Z,956.34
2018-02-21T07:24:45.063Z,956.33
2018-02-21T07:25:45.076Z,956.36
2018-02-21T07:26:45.086Z,956.35
2018-02-21T07:27:45.097Z,956.37
2018-02-21T07:28:45.110Z,956.4
2018-02-21T07:29:45.171Z,956.43
2018-02-21T07:30:45.133Z,956.45
2018-02-21T07:31:45.145Z,956.43
2018-02-21T07:32:45.178Z,956.48
2018-02-21T07:33:45.173Z,956.5
2018-02-21T07:34:45.180Z,956.48
2018-02-21T07:35:45.190Z,956.5
2018-02-21T07:36:45.202Z,956.54
2018-02-21T07:37:45.214Z,956.55
2018-02-21T07:38:45.227Z,956.56
2018-02-21T07:39:45.247Z,956.51
2018-02-21T07:40:45.249Z,956.56
2018-02-21T07:41:45.261Z,956.53
2018-02-21T07:42:45.275Z,956.52
2018-02-21T07:43:45.285Z,956.5
2018-02-21T07:44:45.347Z,956.52
2018-02-21T07:45:45.307Z,956.5
2018-02-21T07:46:45.320Z,956.52
2018-02-21T07:47:45.331Z,956.54
2018-02-21T07:48:45.341Z,956.52
2018-02-21T07:49:45.354Z,956.54
2018-02-21T07:50:45.366Z,956.51
2018-02-21T07:51:45.377Z,956.52
2018-02-21T07:52:45.388Z,956.49
2018-02-21T07:53:45.401Z,956.54
2018-02-21T07:54:45.412Z,956.51
2018-02-21T07:55:45.425Z,956.52
2018-02-21T07:56:45.439Z,956.52
2018-02-21T07:57:45.448Z,956.59
2018-02-21T07:58:45.459Z,956.63
2018-02-21T07:59:45.522Z,956.64
2018-02-21T08:00:45.483Z,956.54
2018-02-21T08:01:45.496Z,956.6
2018-02-21T08:02:45.508Z,956.57
2018-02-21T08:03:45.517Z,956.53
2018-02-21T08:04:45.530Z,956.58
2018-02-21T08:05:45.544Z,956.55
2018-02-21T08:06:45.556Z,956.55
2018-02-21T08:07:45.568Z,956.55
2018-02-21T08:08:45.581Z,956.52
2018-02-21T08:09:45.592Z,956.56
2018-02-21T08:10:45.604Z,956.59
2018-02-21T08:11:45.616Z,956.58
2018-02-21T08:12:45.629Z,956.59
2018-02-21T08:13:45.641Z,956.61
2018-02-21T08:14:45.651Z,956.57
2018-02-21T08:15:45.729Z,956.6
2018-02-21T08:16:45.676Z,956.6
2018-02-21T08:17:45.688Z,956.63
2018-02-21T08:18:45.702Z,956.61
2018-02-21T08:19:45.714Z,956.67
2018-02-21T08:20:45.742Z,956.64
2018-02-21T08:21:45.738Z,956.66
2018-02-21T08:22:45.750Z,956.62
2018-02-21T08:23:45.763Z,956.68
2018-02-21T08:24:45.777Z,956.66
2018-02-21T08:25:45.787Z,956.67
2018-02-21T08:26:45.799Z,956.67
2018-02-21T08:27:45.812Z,956.7
2018-02-21T08:28:45.825Z,956.71
2018-02-21T08:29:45.843Z,956.68
2018-02-21T08:30:45.901Z,956.7
2018-02-21T08:31:45.863Z,956.69
2018-02-21T08:32:45.875Z,956.71
2018-02-21T08:33:45.888Z,956.75
2018-02-21T08:34:45.899Z,956.77
2018-02-21T08:35:45.964Z,956.76
2018-02-21T08:36:45.931Z,956.78
2018-02-21T08:37:45.938Z,956.85
2018-02-21T08:38:45.950Z,956.81
2018-02-21T08:39:45.963Z,956.85
2018-02-21T08:40:45.976Z,956.81
2018-02-21T08:41:45.987Z,956.84
2018-02-21T08:42:46.001Z,956.8
2018-02-21T08:43:46.012Z,956.84
2018-02-21T08:44:46.026Z,956.8
2018-02-21T08:45:46.089Z,956.8
2018-02-21T08:46:46.051Z,956.81
2018-02-21T08:47:46.072Z,956.78
2018-02-21T08:48:46.074Z,956.8
2018-02-21T08:49:46.088Z,956.8
2018-02-21T08:50:46.099Z,956.81
2018-02-21T08:51:46.114Z,956.82
2018-02-21T08:52:46.126Z,956.86
2018-02-21T08:53:46.141Z,956.88
2018-02-21T08:54:46.150Z,956.87
2018-02-21T08:55:46.164Z,956.9
2018-02-21T08:56:46.176Z,956.9
2018-02-21T08:57:46.188Z,956.88
2018-02-21T08:58:46.233Z,956.89
2018-02-21T08:59:46.214Z,956.92
2018-02-21T09:00:46.276Z,956.92
2018-02-21T09:01:46.238Z,956.91
2018-02-21T09:02:46.252Z,956.91
2018-02-21T09:03:46.264Z,956.94
2018-02-21T09:04:46.278Z,956.92
2018-02-21T09:05:46.291Z,956.91
2018-02-21T09:06:46.303Z,956.91
2018-02-21T09:07:46.317Z,956.88
2018-02-21T09:08:46.333Z,956.9
2018-02-21T09:09:46.342Z,956.88
2018-02-21T09:10:46.355Z,956.82
2018-02-21T09:11:46.374Z,956.83
2018-02-21T09:12:46.382Z,956.87
2018-02-21T09:13:46.395Z,956.89
2018-02-21T09:14:46.408Z,956.89
2018-02-21T09:15:46.572Z,956.92
2018-02-21T09:16:46.433Z,956.93
2018-02-21T09:17:46.448Z,956.94
2018-02-21T09:18:46.460Z,956.92
2018-02-21T09:19:46.482Z,956.9
2018-02-21T09:20:46.488Z,956.92
2018-02-21T09:21:46.536Z,956.9
2018-02-21T09:22:46.513Z,956.9
2018-02-21T09:23:46.526Z,956.89
2018-02-21T09:24:46.540Z,956.85
2018-02-21T09:25:46.557Z,956.87
2018-02-21T09:26:46.567Z,956.85
2018-02-21T09:27:46.579Z,956.8
2018-02-21T09:28:46.593Z,956.82
2018-02-21T09:29:46.608Z,956.74
2018-02-21T09:30:46.620Z,956.76
2018-02-21T09:31:46.634Z,956.75
2018-02-21T09:32:46.647Z,956.76
2018-02-21T09:33:46.661Z,956.78
2018-02-21T09:34:46.674Z,956.74
2018-02-21T09:35:46.689Z,956.72
2018-02-21T09:36:46.702Z,956.71
2018-02-21T09:37:46.717Z,956.74
2018-02-21T09:38:46.728Z,956.77
2018-02-21T09:39:46.744Z,956.72
2018-02-21T09:40:46.758Z,956.7
2018-02-21T09:41:46.772Z,956.72
2018-02-21T09:42:46.787Z,956.73
2018-02-21T09:43:46.803Z,956.7
2018-02-21T09:44:46.815Z,956.69
2018-02-21T09:45:46.833Z,956.63
2018-02-21T09:46:46.843Z,956.68
2018-02-21T09:47:46.859Z,956.71
2018-02-21T09:48:46.874Z,956.67
2018-02-21T09:49:46.887Z,956.69
2018-02-21T09:50:46.902Z,956.68
2018-02-21T09:51:46.916Z,956.68
2018-02-21T09:52:46.980Z,956.69
2018-02-21T09:53:46.945Z,956.7
2018-02-21T09:54:46.961Z,956.75
2018-02-21T09:55:46.982Z,956.73
2018-02-21T09:56:46.989Z,956.76
2018-02-21T09:57:47.004Z,956.68
2018-02-21T09:58:47.022Z,956.71
2018-02-21T09:59:47.035Z,956.73
2018-02-21T10:00:47.049Z,956.67
2018-02-21T10:01:47.063Z,956.66
2018-02-21T10:02:47.079Z,956.68
2018-02-21T10:03:47.094Z,956.75
2018-02-21T10:04:47.108Z,956.7
2018-02-21T10:05:47.125Z,956.7
2018-02-21T10:06:47.139Z,956.7
2018-02-21T10:07:47.204Z,956.68
2018-02-21T10:08:47.171Z,956.69
2018-02-21T10:09:47.184Z,956.68
2018-02-21T10:10:47.199Z,956.61
2018-02-21T10:11:47.215Z,956.64
2018-02-21T10:12:47.231Z,956.61
2018-02-21T10:13:47.247Z,956.66
2018-02-21T10:14:47.263Z,956.68
2018-02-21T10:15:47.278Z,956.64
2018-02-21T10:16:47.292Z,956.69
2018-02-21T10:17:47.323Z,956.69
2018-02-21T10:18:47.326Z,956.69
2018-02-21T10:19:47.341Z,956.73
2018-02-21T10:20:47.357Z,956.75
2018-02-21T10:21:47.371Z,956.74
2018-02-21T10:22:47.436Z,956.74
2018-02-21T10:23:47.503Z,956.72
2018-02-21T10:24:47.418Z,956.73
2018-02-21T10:25:47.433Z,956.72
2018-02-21T10:26:47.449Z,956.72
2018-02-21T10:27:47.464Z,956.74
2018-02-21T10:28:47.479Z,956.67
2018-02-21T10:29:47.496Z,956.67
2018-02-21T10:30:47.510Z,956.73
2018-02-21T10:31:47.530Z,956.7
2018-02-21T10:32:47.541Z,956.7
2018-02-21T10:33:47.556Z,956.69
2018-02-21T10:34:47.572Z,956.71
2018-02-21T10:35:47.588Z,956.74
2018-02-21T10:36:47.603Z,956.7
2018-02-21T10:37:47.624Z,956.69
2018-02-21T10:38:47.683Z,956.71
2018-02-21T10:39:47.676Z,956.64
2018-02-21T10:40:47.665Z,956.65
2018-02-21T10:41:47.682Z,956.65
2018-02-21T10:42:47.697Z,956.62
2018-02-21T10:43:47.717Z,956.61
2018-02-21T10:44:47.728Z,956.59
2018-02-21T10:45:47.745Z,956.56
2018-02-21T10:46:47.761Z,956.53
2018-02-21T10:47:47.775Z,956.53
2018-02-21T10:48:47.791Z,956.58
2018-02-21T10:49:47.807Z,956.52
2018-02-21T10:50:47.824Z,956.58
2018-02-21T10:51:47.839Z,956.57
2018-02-21T10:52:47.854Z,956.57
2018-02-21T10:53:47.921Z,956.48
2018-02-21T10:54:47.886Z,956.53
2018-02-21T10:55:47.899Z,956.48
2018-02-21T10:56:47.916Z,956.47
2018-02-21T10:57:47.932Z,956.45
2018-02-21T10:58:47.948Z,956.48
2018-02-21T10:59:47.963Z,956.47
2018-02-21T11:00:47.980Z,956.48
2018-02-21T11:01:47.996Z,956.48
2018-02-21T11:02:48.010Z,956.49
2018-02-21T11:03:48.027Z,956.52
2018-02-21T11:04:48.043Z,956.52
2018-02-21T11:05:48.058Z,956.57
2018-02-21T11:06:48.073Z,956.61
2018-02-21T11:07:48.091Z,956.57
2018-02-21T11:08:48.257Z,956.63
2018-02-21T11:09:48.121Z,956.68
2018-02-21T11:10:48.139Z,956.59
2018-02-21T11:11:48.155Z,956.63
2018-02-21T11:12:48.173Z,956.63
2018-02-21T11:13:48.239Z,956.67
2018-02-21T11:14:48.207Z,956.61
2018-02-21T11:15:48.224Z,956.6
2018-02-21T11:16:48.242Z,956.6
2018-02-21T11:17:48.261Z,956.58
2018-02-21T11:18:48.279Z,956.56
2018-02-21T11:19:48.296Z,956.53
2018-02-21T11:20:48.314Z,956.48
2018-02-21T11:21:48.332Z,956.47
2018-02-21T11:22:48.350Z,956.5
2018-02-21T11:23:48.420Z,956.44
2018-02-21T11:24:48.446Z,956.41
2018-02-21T11:25:48.407Z,956.37
2018-02-21T11:26:48.423Z,956.4
2018-02-21T11:27:48.440Z,956.37
2018-02-21T11:28:48.460Z,956.35
2018-02-21T11:29:48.478Z,956.32
2018-02-21T11:30:48.498Z,956.34
2018-02-21T11:31:48.512Z,956.35
2018-02-21T11:32:48.531Z,956.35
2018-02-21T11:33:48.548Z,956.36
2018-02-21T11:34:48.571Z,956.39
2018-02-21T11:35:48.582Z,956.36
2018-02-21T11:36:48.600Z,956.37
2018-02-21T11:37:48.624Z,956.37
2018-02-21T11:38:48.632Z,956.32
2018-02-21T11:39:49.002Z,956.34
2018-02-21T11:40:48.667Z,956.34
2018-02-21T11:41:48.686Z,956.39
2018-02-21T11:42:48.701Z,956.36
2018-02-21T11:43:48.720Z,956.29
2018-02-21T11:44:48.737Z,956.29
2018-02-21T11:45:48.754Z,956.33
2018-02-21T11:46:48.770Z,956.37
2018-02-21T11:47:48.788Z,956.32
2018-02-21T11:48:48.807Z,956.29
2018-02-21T11:49:48.924Z,956.36
2018-02-21T11:50:48.839Z,956.3
2018-02-21T11:51:48.856Z,956.37
2018-02-21T11:52:48.875Z,956.31
2018-02-21T11:53:48.892Z,956.29
2018-02-21T11:54:48.963Z,956.38
2018-02-21T11:55:48.928Z,956.42
2018-02-21T11:56:48.949Z,956.3
2018-02-21T11:57:48.964Z,956.28
2018-02-21T11:58:48.981Z,956.38
2018-02-21T11:59:49.003Z,956.41
2018-02-21T12:00:49.020Z,956.29
2018-02-21T12:01:49.039Z,956.27
2018-02-21T12:02:49.060Z,956.35
2018-02-21T12:03:49.089Z,956.43
2018-02-21T12:04:49.191Z,956.24
2018-02-21T12:05:49.118Z,956.26
2018-02-21T12:06:49.139Z,956.37
2018-02-21T12:07:49.160Z,956.24
2018-02-21T12:08:49.180Z,956.27
2018-02-21T12:09:49.251Z,956.38
2018-02-21T12:10:49.221Z,956.42
2018-02-21T12:11:49.241Z,956.31
2018-02-21T12:12:49.263Z,956.28
2018-02-21T12:13:49.285Z,956.3
2018-02-21T12:14:49.306Z,956.53
2018-02-21T12:15:49.325Z,956.29
2018-02-21T12:16:49.346Z,956.26
2018-02-21T12:17:49.367Z,956.23
2018-02-21T12:18:49.388Z,956.56
2018-02-21T12:19:49.409Z,956.26
2018-02-21T12:20:49.430Z,956.28
2018-02-21T12:21:49.451Z,956.36
2018-02-21T12:22:49.470Z,956.26
2018-02-21T12:23:49.495Z,956.24
2018-02-21T12:24:49.512Z,956.24
2018-02-21T12:25:49.584Z,956.26
2018-02-21T12:26:49.553Z,956.21
2018-02-21T12:27:49.573Z,956.24
2018-02-21T12:28:49.594Z,956.18
2018-02-21T12:29:49.615Z,956.25
2018-02-21T12:30:49.633Z,956.28
2018-02-21T12:31:49.652Z,956.25
2018-02-21T12:32:49.671Z,956.26